Time;durP1;ratioP1;P1;durP2;ratioP2;P2;SDS_P1;SDS_P2;PMS_P1;PMS_P2;Temp;Humidity;BMP_temperature;BMP_pressure;BME280_temperature;BME280_humidity;BME280_pressure;Samples;Min_cycle;Max_cycle;Signal;HPM_P1;HPM_P2
2020/12/04 00:04:03;;;;;;;16.30;8.30;;;;;;;-0.24;100.00;94707.03;10491571;28;20040;-76
2020/12/04 00:09:04;;;;;;;14.90;7.20;;;;;;;-0.15;100.00;94698.84;10491962;28;20029;-75
2020/12/04 00:14:04;;;;;;;21.65;10.05;;;;;;;-0.11;100.00;94684.22;10491160;28;20300;-76
2020/12/04 00:19:04;;;;;;;19.20;9.37;;;;;;;-0.20;100.00;94688.94;10490703;28;20051;-76
2020/12/04 00:24:05;;;;;;;26.00;11.60;;;;;;;-0.12;100.00;94690.53;10491083;28;20359;-76
2020/12/04 00:29:05;;;;;;;18.55;9.05;;;;;;;-0.01;100.00;94690.69;10491025;28;20773;-75
2020/12/04 00:34:07;;;;;;;23.00;9.85;;;;;;;0.05;100.00;94689.06;10489859;28;20036;-75
2020/12/04 00:39:07;;;;;;;20.08;10.85;;;;;;;0.19;100.00;94695.09;10464482;28;20063;-75
2020/12/04 00:44:08;;;;;;;24.17;9.98;;;;;;;0.28;100.00;94685.09;10449004;28;20518;-76
2020/12/04 00:49:08;;;;;;;16.30;8.02;;;;;;;0.38;100.00;94682.84;10449061;28;20035;-76
2020/12/04 00:54:09;;;;;;;19.07;9.70;;;;;;;0.41;100.00;94686.91;10448637;28;20033;-76
2020/12/04 00:59:09;;;;;;;20.63;10.23;;;;;;;0.37;100.00;94685.69;10448073;28;20329;-76
2020/12/04 01:04:10;;;;;;;19.17;10.03;;;;;;;0.46;100.00;94690.53;10448981;28;20581;-76
2020/12/04 01:09:10;;;;;;;18.30;9.63;;;;;;;0.46;100.00;94674.66;10463192;28;20801;-76
2020/12/04 01:14:11;;;;;;;22.60;10.52;;;;;;;0.47;100.00;94665.69;10463539;28;20053;-75
2020/12/04 01:19:11;;;;;;;23.33;11.70;;;;;;;0.47;100.00;94657.75;10447814;28;20073;-75
2020/12/04 01:24:12;;;;;;;19.92;10.80;;;;;;;0.45;100.00;94657.16;10447687;28;20036;-76
2020/12/04 01:29:12;;;;;;;18.97;8.70;;;;;;;0.62;100.00;94649.53;10447006;28;20025;-76
2020/12/04 01:34:13;;;;;;;14.05;8.10;;;;;;;0.61;100.00;94650.56;10447151;28;20287;-75
2020/12/04 01:39:17;;;;;;;19.13;8.50;;;;;;;0.77;100.00;94625.44;10446274;28;20443;-75
2020/12/04 01:44:17;;;;;;;16.08;7.90;;;;;;;0.78;100.00;94621.78;10447070;28;20033;-75
2020/12/04 01:49:18;;;;;;;14.05;7.40;;;;;;;0.87;100.00;94626.81;10446516;28;20037;-75
2020/12/04 01:54:19;;;;;;;18.05;8.10;;;;;;;0.91;100.00;94601.50;10445577;28;20033;-75
2020/12/04 01:59:19;;;;;;;17.85;8.80;;;;;;;0.93;100.00;94592.34;10446199;28;20025;-75
2020/12/04 02:04:19;;;;;;;15.07;8.25;;;;;;;0.94;100.00;94595.81;10445810;28;20033;-76
2020/12/04 02:09:25;;;;;;;15.60;7.70;;;;;;;0.96;100.00;94606.97;10445169;28;20041;-76
2020/12/04 02:14:27;;;;;;;19.65;10.25;;;;;;;0.82;100.00;94601.81;10444657;28;20045;-76
2020/12/04 02:19:27;;;;;;;16.70;9.90;;;;;;;0.83;100.00;94599.97;10444057;28;20040;-76
2020/12/04 02:24:28;;;;;;;20.25;9.80;;;;;;;0.87;100.00;94579.19;10445188;28;20103;-76
2020/12/04 02:29:28;;;;;;;18.13;10.43;;;;;;;0.87;100.00;94579.19;10445440;28;20040;-76
2020/12/04 02:34:29;;;;;;;21.23;9.75;;;;;;;0.95;100.00;94592.94;10444948;28;20036;-76
2020/12/04 02:39:29;;;;;;;23.93;10.30;;;;;;;0.98;100.00;94560.75;10444829;28;20037;-76
2020/12/04 02:44:29;;;;;;;18.57;10.47;;;;;;;1.14;100.00;94583.19;10444545;28;20299;-76
2020/12/04 02:49:30;;;;;;;22.10;11.38;;;;;;;1.23;100.00;94573.16;10444692;28;21137;-76
2020/12/04 02:54:30;;;;;;;22.60;9.83;;;;;;;1.28;100.00;94570.66;10444059;28;20060;-76
2020/12/04 02:59:30;;;;;;;21.90;10.27;;;;;;;1.43;100.00;94561.56;10444792;28;20298;-76
2020/12/04 03:04:31;;;;;;;22.17;9.73;;;;;;;1.50;100.00;94562.28;10442884;28;20029;-76
2020/12/04 03:09:31;;;;;;;19.83;9.47;;;;;;;1.54;100.00;94577.50;10443381;28;20032;-75
2020/12/04 03:14:32;;;;;;;18.15;8.35;;;;;;;1.51;100.00;94567.34;10443501;28;20337;-75
2020/12/04 03:19:32;;;;;;;10.32;5.75;;;;;;;1.32;100.00;94592.22;10443966;28;20445;-75
2020/12/04 03:24:33;;;;;;;15.73;8.03;;;;;;;1.19;100.00;94585.22;10443605;28;20082;-75
2020/12/04 03:29:33;;;;;;;18.65;9.13;;;;;;;1.27;100.00;94566.41;10476324;28;20287;-75
2020/12/04 03:34:34;;;;;;;18.07;6.90;;;;;;;1.32;100.00;94568.38;10475481;28;20025;-75
2020/12/04 03:39:35;;;;;;;21.35;10.85;;;;;;;1.31;100.00;94570.22;10443854;28;20295;-76
2020/12/04 03:44:36;;;;;;;15.02;7.60;;;;;;;1.44;100.00;94582.50;10442950;28;20044;-76
2020/12/04 03:49:36;;;;;;;18.40;9.27;;;;;;;1.51;100.00;94577.16;10442842;28;20036;-76
2020/12/04 03:54:37;;;;;;;18.90;7.57;;;;;;;1.59;100.00;94597.22;10442472;28;20044;-76
2020/12/04 03:59:37;;;;;;;14.73;7.03;;;;;;;1.54;100.00;94580.16;10441372;28;20446;-76
2020/12/04 04:04:37;;;;;;;17.77;7.13;;;;;;;1.52;100.00;94570.81;10441798;28;20314;-75
2020/12/04 04:09:38;;;;;;;12.73;5.90;;;;;;;1.50;100.00;94589.56;10441419;28;20291;-75
2020/12/04 04:14:38;;;;;;;17.17;7.47;;;;;;;1.57;100.00;94589.50;10441502;28;20057;-75
2020/12/04 04:19:39;;;;;;;14.05;6.55;;;;;;;1.52;100.00;94587.53;10440666;28;20037;-75
2020/12/04 04:24:39;;;;;;;14.40;7.63;;;;;;;1.62;100.00;94570.28;10441613;28;20488;-75
2020/12/04 04:29:40;;;;;;;20.17;10.70;;;;;;;1.79;100.00;94578.47;10441163;28;20059;-75
2020/12/04 04:34:40;;;;;;;15.23;7.85;;;;;;;1.88;100.00;94570.00;10441913;28;20036;-74
2020/12/04 04:39:43;;;;;;;15.90;8.10;;;;;;;1.97;100.00;94567.06;10441271;28;20033;-73
2020/12/04 04:44:44;;;;;;;18.02;7.28;;;;;;;1.93;100.00;94573.81;10477125;28;20291;-75
2020/12/04 04:49:47;;;;;;;16.48;7.55;;;;;;;1.73;100.00;94574.06;10449248;28;20029;-75
2020/12/04 04:54:49;;;;;;;21.40;9.23;;;;;;;1.79;100.00;94566.03;10452780;28;20073;-75
2020/12/04 04:59:49;;;;;;;14.77;7.60;;;;;;;1.76;100.00;94563.00;10448512;28;20033;-75
2020/12/04 05:04:57;;;;;;;17.83;7.30;;;;;;;1.73;100.00;94566.09;10448848;28;20082;-75
2020/12/04 05:10:11;;;;;;;19.17;7.57;;;;;;;1.76;100.00;94561.19;10448550;28;20033;-75
2020/12/04 05:15:26;;;;;;;18.75;8.00;;;;;;;1.83;100.00;94555.81;10447766;28;20072;-74
2020/12/04 05:20:26;;;;;;;14.85;8.60;;;;;;;1.82;100.00;94568.22;10465186;28;20044;-75
2020/12/04 05:25:35;;;;;;;19.42;9.32;;;;;;;1.83;100.00;94577.00;10485171;28;20037;-73
2020/12/04 05:30:36;;;;;;;21.17;11.25;;;;;;;1.75;100.00;94572.81;10480964;28;20040;-73
2020/12/04 05:35:37;;;;;;;25.00;11.75;;;;;;;1.70;100.00;94559.41;10477825;28;20117;-73
2020/12/04 05:40:40;;;;;;;25.73;10.98;;;;;;;1.70;100.00;94567.34;10487102;28;20057;-74
2020/12/04 05:45:41;;;;;;;20.08;8.65;;;;;;;1.59;100.00;94555.69;10487038;28;20036;-74
2020/12/04 05:50:43;;;;;;;23.15;10.57;;;;;;;1.70;100.00;94554.09;10485865;28;20032;-74
2020/12/04 05:55:43;;;;;;;20.48;10.65;;;;;;;1.69;100.00;94568.41;10484965;28;20096;-74
2020/12/04 06:00:44;;;;;;;22.55;11.00;;;;;;;1.59;100.00;94568.09;10486046;28;20097;-73
2020/12/04 06:05:44;;;;;;;24.80;13.27;;;;;;;1.55;100.00;94559.78;10485988;28;20041;-73
2020/12/04 06:10:45;;;;;;;24.03;11.53;;;;;;;1.63;100.00;94553.38;10484144;28;21051;-72
2020/12/04 06:15:45;;;;;;;25.55;11.57;;;;;;;1.77;100.00;94564.63;10486040;28;20290;-73
2020/12/04 06:20:48;;;;;;;20.00;10.37;;;;;;;1.77;100.00;94560.13;10486275;28;20075;-73
2020/12/04 06:25:49;;;;;;;20.27;11.02;;;;;;;1.79;100.00;94571.31;10487120;28;20286;-74
2020/12/04 06:31:16;;;;;;;19.37;9.67;;;;;;;1.91;100.00;94568.72;10478992;28;20028;-74
2020/12/04 06:36:31;;;;;;;35.00;15.32;;;;;;;1.89;100.00;94570.81;10445170;28;20387;-74
2020/12/04 06:41:51;;;;;;;28.30;12.20;;;;;;;1.82;100.00;94578.03;10460381;28;20037;-74
2020/12/04 06:46:57;;;;;;;27.65;12.73;;;;;;;1.77;100.00;94594.56;10472630;28;20033;-75
2020/12/04 06:52:14;;;;;;;27.67;11.18;;;;;;;1.75;100.00;94595.84;10468303;28;20029;-74
2020/12/04 06:57:21;;;;;;;30.67;12.75;;;;;;;1.71;100.00;94611.38;10468594;28;20067;-74
2020/12/04 07:02:24;;;;;;;23.98;12.18;;;;;;;1.77;100.00;94605.16;10485184;28;20063;-73
2020/12/04 07:07:26;;;;;;;33.78;15.65;;;;;;;1.77;100.00;94610.47;10486020;28;20104;-73
2020/12/04 07:12:28;;;;;;;21.83;11.20;;;;;;;1.91;100.00;94608.47;10446945;28;20511;-74
2020/12/04 07:17:30;;;;;;;36.47;14.70;;;;;;;1.99;100.00;94610.03;10445055;28;20055;-73
2020/12/04 07:22:30;;;;;;;25.00;12.10;;;;;;;2.08;100.00;94611.34;10464197;28;20044;-74
2020/12/04 07:27:31;;;;;;;28.42;12.25;;;;;;;2.19;100.00;94607.94;10483588;28;20029;-74
2020/12/04 07:32:31;;;;;;;30.23;13.15;;;;;;;2.37;100.00;94598.31;10484872;28;20028;-74
2020/12/04 07:37:32;;;;;;;29.20;13.23;;;;;;;2.46;100.00;94598.84;10480270;28;20047;-76
2020/12/04 07:42:32;;;;;;;24.00;10.77;;;;;;;2.41;100.00;94596.84;10475009;28;20109;-75
2020/12/04 07:47:36;;;;;;;25.23;13.25;;;;;;;2.48;100.00;94612.66;10484209;28;20117;-74
2020/12/04 07:52:49;;;;;;;29.92;14.02;;;;;;;2.52;100.00;94606.69;10484319;28;20054;-74
2020/12/04 07:58:14;;;;;;;29.85;15.93;;;;;;;2.62;100.00;94586.75;10488407;28;20032;-74
2020/12/04 08:03:15;;;;;;;29.85;13.48;;;;;;;2.75;100.00;94599.84;10483281;28;20036;-74
2020/12/04 08:08:19;;;;;;;31.30;14.07;;;;;;;2.86;100.00;94607.00;10484345;28;20029;-75
2020/12/04 08:13:22;;;;;;;27.08;12.77;;;;;;;2.97;100.00;94596.63;10482906;28;20298;-74
2020/12/04 08:18:22;;;;;;;30.13;12.10;;;;;;;2.89;100.00;94605.75;10474228;28;20051;-74
2020/12/04 08:23:23;;;;;;;29.53;12.03;;;;;;;2.80;100.00;94597.28;10456942;28;20484;-75
2020/12/04 08:28:24;;;;;;;20.47;11.20;;;;;;;2.82;100.00;94595.22;10488816;28;20028;-73
2020/12/04 08:33:24;;;;;;;31.65;13.25;;;;;;;2.74;100.00;94590.25;10486056;28;20291;-74
2020/12/04 08:38:26;;;;;;;29.08;11.85;;;;;;;2.69;100.00;94575.03;10479929;28;20472;-74
2020/12/04 08:43:26;;;;;;;30.67;14.95;;;;;;;2.67;100.00;94565.66;10476570;28;20427;-73
2020/12/04 08:48:32;;;;;;;27.10;13.80;;;;;;;2.71;100.00;94561.53;10454176;28;20036;-72
2020/12/04 08:53:37;;;;;;;29.52;14.00;;;;;;;2.77;100.00;94554.50;10449159;28;20044;-72
2020/12/04 08:58:37;;;;;;;31.33;13.68;;;;;;;2.84;100.00;94555.19;10448858;28;20033;-72
2020/12/04 09:03:38;;;;;;;29.23;14.07;;;;;;;2.85;100.00;94570.88;10447277;28;20037;-72
2020/12/04 09:08:39;;;;;;;34.15;14.88;;;;;;;2.86;100.00;94577.00;10448143;28;20041;-74
2020/12/04 09:13:48;;;;;;;32.42;15.75;;;;;;;2.87;100.00;94555.53;10448410;28;20167;-74
2020/12/04 09:18:49;;;;;;;36.85;17.00;;;;;;;2.89;100.00;94556.13;10447540;28;20102;-72
2020/12/04 09:23:49;;;;;;;33.07;15.70;;;;;;;2.91;100.00;94534.66;10447847;28;20145;-72
2020/12/04 09:28:49;;;;;;;25.13;13.55;;;;;;;2.93;100.00;94545.88;10447646;28;20279;-72
2020/12/04 09:33:51;;;;;;;33.75;14.88;;;;;;;2.85;100.00;94548.84;10458254;28;20040;-72
2020/12/04 09:38:51;;;;;;;32.58;14.55;;;;;;;2.82;100.00;94536.84;10470928;28;20032;-72
2020/12/04 09:43:51;;;;;;;36.00;16.92;;;;;;;2.91;100.00;94530.13;10485634;28;20040;-73
2020/12/04 09:48:52;;;;;;;36.13;17.50;;;;;;;3.06;100.00;94532.34;10484557;28;20472;-72
2020/12/04 09:53:52;;;;;;;34.23;18.57;;;;;;;3.03;100.00;94542.63;10483881;28;20066;-72
2020/12/04 09:58:53;;;;;;;32.47;15.45;;;;;;;3.15;100.00;94538.09;10457561;28;20303;-74
2020/12/04 10:03:53;;;;;;;33.03;14.57;;;;;;;3.23;100.00;94545.72;10459201;28;20032;-73
2020/12/04 10:08:54;;;;;;;60.45;25.08;;;;;;;3.27;100.00;94542.63;10456594;28;20031;-72
2020/12/04 10:13:55;;;;;;;60.17;22.02;;;;;;;3.20;100.00;94550.72;10439186;28;20072;-72
2020/12/04 10:18:56;;;;;;;60.00;24.40;;;;;;;3.28;100.00;94544.22;10440934;28;20045;-72
2020/12/04 10:23:57;;;;;;;29.20;14.48;;;;;;;3.24;100.00;94535.94;10442770;28;20368;-73
2020/12/04 10:28:58;;;;;;;31.45;14.02;;;;;;;3.37;100.00;94521.59;10441890;28;20033;-71
2020/12/04 10:33:59;;;;;;;30.33;14.25;;;;;;;3.53;100.00;94533.34;10442106;28;20082;-71
2020/12/04 10:39:00;;;;;;;26.55;12.02;;;;;;;3.60;100.00;94528.72;10472540;28;20083;-72
2020/12/04 10:44:03;;;;;;;27.55;11.15;;;;;;;3.62;100.00;94531.16;10447444;28;20041;-71
2020/12/04 10:49:04;;;;;;;24.92;12.02;;;;;;;3.61;100.00;94521.56;10438902;28;20407;-72
2020/12/04 10:54:06;;;;;;;20.08;9.70;;;;;;;3.62;100.00;94513.34;10437792;28;20037;-72
2020/12/04 10:59:06;;;;;;;33.45;12.63;;;;;;;3.48;100.00;94510.13;10438501;28;20123;-72
2020/12/04 11:09:26;;;;;;;22.45;11.90;;;;;;;3.41;100.00;94518.22;10441384;28;20045;-73
2020/12/04 11:14:26;;;;;;;35.15;13.38;;;;;;;3.50;100.00;94509.91;10458755;28;20503;-72
2020/12/04 11:19:27;;;;;;;32.10;14.70;;;;;;;3.65;100.00;94499.59;10480724;28;20876;-72
2020/12/04 11:24:28;;;;;;;30.63;12.85;;;;;;;3.65;100.00;94485.50;10479534;28;20318;-71
2020/12/04 11:29:29;;;;;;;34.00;14.93;;;;;;;3.67;100.00;94478.09;10475420;28;20143;-73
2020/12/04 11:34:29;;;;;;;29.17;13.00;;;;;;;3.37;100.00;94481.75;10480777;28;20040;-73
2020/12/04 11:39:30;;;;;;;34.90;15.43;;;;;;;3.17;100.00;94480.28;10469060;28;20797;-73
2020/12/04 11:44:30;;;;;;;31.98;15.60;;;;;;;3.24;100.00;94480.97;10455814;28;20036;-73
2020/12/04 11:49:31;;;;;;;32.47;13.10;;;;;;;3.32;100.00;94481.63;10458878;28;20487;-74
2020/12/04 11:54:31;;;;;;;31.23;15.98;;;;;;;3.40;100.00;94479.44;10438646;28;20112;-74
2020/12/04 11:59:31;;;;;;;35.75;15.23;;;;;;;3.52;100.00;94466.13;10452662;28;20389;-74
2020/12/04 12:04:33;;;;;;;31.73;13.43;;;;;;;3.41;100.00;94480.25;10472714;28;20036;-74
2020/12/04 12:09:33;;;;;;;32.28;11.52;;;;;;;3.48;100.00;94474.81;10439667;28;20052;-73
2020/12/04 12:14:36;;;;;;;33.33;15.40;;;;;;;3.44;100.00;94473.66;10469667;28;20057;-74
2020/12/04 12:19:39;;;;;;;29.90;10.82;;;;;;;3.54;100.00;94457.91;10459341;28;20492;-73
2020/12/04 12:24:43;;;;;;;20.70;11.15;;;;;;;3.58;100.00;94461.72;10480330;28;20044;-74
2020/12/04 12:29:45;;;;;;;25.52;11.13;;;;;;;3.49;100.00;94463.13;10445177;28;20025;-74
2020/12/04 12:35:11;;;;;;;23.45;10.05;;;;;;;3.57;100.00;94457.44;10445821;28;20036;-74
2020/12/04 12:40:12;;;;;;;28.25;11.75;;;;;;;3.52;100.00;94462.66;10453902;28;20039;-75
2020/12/04 12:45:14;;;;;;;28.70;12.18;;;;;;;3.60;100.00;94459.66;10438480;28;20037;-74
2020/12/04 12:50:15;;;;;;;31.77;13.25;;;;;;;3.65;100.00;94469.56;10448892;28;20024;-74
2020/12/04 12:55:16;;;;;;;26.23;13.27;;;;;;;3.64;100.00;94479.34;10478592;28;20032;-73
2020/12/04 13:00:16;;;;;;;23.42;12.45;;;;;;;3.72;100.00;94471.03;10478785;28;20264;-74
2020/12/04 13:05:34;;;;;;;23.55;11.57;;;;;;;3.66;100.00;94493.22;10480491;28;20036;-74
2020/12/04 13:10:36;;;;;;;23.67;12.90;;;;;;;3.66;100.00;94485.25;10476871;28;20020;-74
2020/12/04 13:15:37;;;;;;;23.90;11.15;;;;;;;3.76;100.00;94469.50;10476917;28;20129;-73
2020/12/04 13:20:37;;;;;;;24.17;12.13;;;;;;;3.92;100.00;94496.38;10446190;28;20037;-73
2020/12/04 13:25:38;;;;;;;28.60;13.20;;;;;;;3.96;100.00;94496.72;10484000;28;20090;-74
2020/12/04 13:30:39;;;;;;;26.80;13.90;;;;;;;3.98;100.00;94484.81;10485733;28;20649;-73
2020/12/04 13:35:40;;;;;;;24.25;11.07;;;;;;;4.09;100.00;94480.50;10485684;28;20028;-73
2020/12/04 13:40:40;;;;;;;32.15;13.70;;;;;;;4.27;100.00;94490.91;10485656;28;20519;-73
2020/12/04 13:45:41;;;;;;;29.83;15.00;;;;;;;4.26;100.00;94477.84;10485535;28;20028;-72
2020/12/04 13:50:42;;;;;;;34.35;14.85;;;;;;;4.27;100.00;94488.25;10484827;28;20036;-73
2020/12/04 13:55:44;;;;;;;32.08;16.35;;;;;;;4.20;100.00;94482.28;10482781;28;20076;-73
2020/12/04 14:00:44;;;;;;;32.65;14.70;;;;;;;4.17;100.00;94488.09;10484466;28;20036;-73
2020/12/04 14:05:49;;;;;;;32.65;16.35;;;;;;;4.21;100.00;94488.41;10469437;28;20037;-73
2020/12/04 14:10:50;;;;;;;34.08;15.65;;;;;;;4.10;100.00;94488.22;10441802;28;20040;-72
2020/12/04 14:15:51;;;;;;;32.38;14.80;;;;;;;4.15;100.00;94490.16;10439921;28;20068;-74
2020/12/04 14:20:51;;;;;;;33.15;15.25;;;;;;;4.00;100.00;94508.50;10440969;28;20475;-73
2020/12/04 14:25:52;;;;;;;30.73;15.57;;;;;;;4.13;100.00;94508.22;10441503;28;20033;-74
2020/12/04 14:30:52;;;;;;;35.70;15.80;;;;;;;4.05;100.00;94497.97;10440499;28;20774;-72
2020/12/04 14:35:53;;;;;;;30.25;13.55;;;;;;;4.01;100.00;94499.47;10440151;28;20025;-73
2020/12/04 14:40:54;;;;;;;28.23;13.35;;;;;;;3.91;100.00;94495.56;10461806;28;20056;-75
2020/12/04 14:45:58;;;;;;;30.77;15.27;;;;;;;4.03;100.00;94514.16;10480578;28;20062;-73
2020/12/04 14:50:58;;;;;;;34.85;15.18;;;;;;;3.98;100.00;94510.56;10450237;28;20029;-73
2020/12/04 14:56:00;;;;;;;35.30;16.13;;;;;;;3.98;100.00;94508.72;10439256;28;20557;-74
2020/12/04 15:01:00;;;;;;;33.45;16.17;;;;;;;3.98;100.00;94505.25;10441376;28;20768;-73
2020/12/04 15:06:01;;;;;;;34.60;16.48;;;;;;;4.11;100.00;94504.97;10459686;28;20028;-74
2020/12/04 15:11:02;;;;;;;37.58;17.33;;;;;;;4.14;100.00;94501.84;10477531;28;20483;-74
2020/12/04 15:16:04;;;;;;;26.27;13.73;;;;;;;4.09;100.00;94512.41;10474121;28;20063;-73
2020/12/04 15:21:06;;;;;;;35.25;17.08;;;;;;;4.26;100.00;94507.13;10470743;28;20043;-72
2020/12/04 15:26:08;;;;;;;33.15;15.57;;;;;;;4.18;100.00;94510.16;10457460;28;20108;-75
2020/12/04 15:31:08;;;;;;;35.67;15.68;;;;;;;4.21;100.00;94510.47;10448288;28;20041;-75
2020/12/04 15:36:09;;;;;;;36.65;19.83;;;;;;;4.14;100.00;94503.69;10463070;28;20043;-76
2020/12/04 15:41:09;;;;;;;38.13;19.85;;;;;;;4.04;100.00;94506.97;10480211;28;20039;-74
2020/12/04 15:46:10;;;;;;;42.92;19.70;;;;;;;3.98;100.00;94516.72;10479027;28;20106;-76
2020/12/04 15:51:15;;;;;;;42.78;20.02;;;;;;;3.94;100.00;94515.56;10474994;28;20028;-77
2020/12/04 15:56:15;;;;;;;41.92;18.88;;;;;;;3.92;100.00;94507.84;10475226;28;20032;-76
2020/12/04 16:01:16;;;;;;;42.63;19.95;;;;;;;4.01;100.00;94510.13;10476885;28;20074;-77
2020/12/04 16:06:23;;;;;;;34.15;17.30;;;;;;;4.02;100.00;94517.84;10466965;28;20040;-77
2020/12/04 16:11:24;;;;;;;37.63;18.88;;;;;;;4.05;100.00;94522.69;10475684;28;20033;-76
2020/12/04 16:16:25;;;;;;;42.70;18.88;;;;;;;4.12;100.00;94506.59;10475841;28;20420;-76
2020/12/04 16:21:26;;;;;;;32.83;18.10;;;;;;;4.18;100.00;94515.47;10479624;28;20037;-77
2020/12/04 16:26:27;;;;;;;45.78;19.58;;;;;;;4.21;100.00;94510.47;10472806;28;20040;-76
2020/12/04 16:31:28;;;;;;;42.95;18.50;;;;;;;4.24;100.00;94520.66;10477487;28;20031;-75
2020/12/04 16:36:29;;;;;;;41.88;20.00;;;;;;;4.08;100.00;94516.88;10473822;28;20133;-73
2020/12/04 16:41:30;;;;;;;40.75;18.38;;;;;;;4.10;100.00;94524.63;10481079;28;20044;-73
2020/12/04 16:46:30;;;;;;;43.92;20.52;;;;;;;4.14;100.00;94524.97;10479661;28;20378;-73
2020/12/04 16:51:32;;;;;;;41.50;19.00;;;;;;;4.17;100.00;94524.50;10487462;28;20086;-74
2020/12/04 16:56:33;;;;;;;38.75;19.15;;;;;;;4.32;100.00;94522.09;10448048;28;20099;-75
2020/12/04 17:01:33;;;;;;;41.65;18.38;;;;;;;4.36;100.00;94533.88;10458300;28;20044;-75
2020/12/04 17:06:34;;;;;;;45.17;19.77;;;;;;;4.43;100.00;94537.19;10488646;28;20107;-76
2020/12/04 17:11:34;;;;;;;42.55;18.55;;;;;;;4.47;100.00;94534.09;10481154;28;20061;-75
2020/12/04 17:16:36;;;;;;;41.30;18.83;;;;;;;4.50;100.00;94537.06;10456188;28;20056;-75
2020/12/04 17:21:37;;;;;;;40.83;18.48;;;;;;;4.63;100.00;94546.59;10445579;28;20064;-76
2020/12/04 17:26:37;;;;;;;45.55;20.77;;;;;;;4.64;100.00;94552.72;10466440;28;20049;-75
2020/12/04 17:31:38;;;;;;;44.65;19.98;;;;;;;4.58;100.00;94546.53;10445083;28;20039;-75
2020/12/04 17:36:39;;;;;;;39.15;19.23;;;;;;;4.66;100.00;94550.63;10450463;28;20566;-76
2020/12/04 17:41:39;;;;;;;37.55;19.13;;;;;;;4.64;100.00;94550.06;10486097;28;20097;-75
2020/12/04 17:46:40;;;;;;;36.45;19.23;;;;;;;4.49;100.00;94550.59;10486255;28;20047;-74
2020/12/04 17:51:41;;;;;;;32.38;15.32;;;;;;;4.57;100.00;94556.34;10445168;28;20029;-75
2020/12/04 17:56:41;;;;;;;37.20;17.38;;;;;;;4.64;100.00;94564.19;10448783;28;20039;-75
2020/12/04 18:01:42;;;;;;;32.85;17.55;;;;;;;4.71;100.00;94566.69;10451763;28;20056;-75
2020/12/04 18:06:47;;;;;;;34.67;18.25;;;;;;;4.64;100.00;94568.72;10486811;28;20853;-75
2020/12/04 18:11:48;;;;;;;37.78;18.30;;;;;;;4.65;100.00;94575.63;10484680;28;20039;-75
2020/12/04 18:16:48;;;;;;;52.47;22.73;;;;;;;4.62;100.00;94575.06;10485326;28;20041;-75
2020/12/04 18:21:54;;;;;;;57.00;24.55;;;;;;;4.62;100.00;94575.06;10485662;28;20302;-75
2020/12/04 18:26:55;;;;;;;43.53;21.02;;;;;;;4.44;100.00;94588.59;10479792;28;20098;-74
2020/12/04 18:31:56;;;;;;;48.40;21.45;;;;;;;4.43;100.00;94581.63;10471685;28;20026;-75
2020/12/04 18:36:56;;;;;;;44.63;20.40;;;;;;;4.52;100.00;94587.38;10445334;28;20080;-75
2020/12/04 18:42:00;;;;;;;44.20;20.65;;;;;;;4.56;100.00;94593.84;10452706;28;20542;-76
2020/12/04 18:47:06;;;;;;;39.60;19.10;;;;;;;4.60;100.00;94606.44;10441625;28;20052;-77
2020/12/04 18:52:07;;;;;;;30.73;15.20;;;;;;;4.62;100.00;94606.22;10442796;28;20451;-76
2020/12/04 18:57:08;;;;;;;28.55;13.63;;;;;;;4.60;100.00;94613.63;10442416;28;20044;-77
2020/12/04 19:02:09;;;;;;;35.88;12.90;;;;;;;4.61;100.00;94632.00;10473389;28;20024;-76
2020/12/04 19:07:10;;;;;;;34.00;13.32;;;;;;;4.65;100.00;94631.53;10468993;28;20037;-75
2020/12/04 19:12:12;;;;;;;25.05;12.30;;;;;;;4.68;100.00;94621.22;10456885;28;20037;-75
2020/12/04 19:17:12;;;;;;;29.95;12.93;;;;;;;4.73;100.00;94623.16;10440955;28;20141;-75
2020/12/04 19:22:13;;;;;;;35.92;13.65;;;;;;;4.83;100.00;94614.53;10450949;28;20040;-75
2020/12/04 19:27:14;;;;;;;32.50;13.13;;;;;;;4.93;100.00;94623.50;10478556;28;20941;-76
2020/12/04 19:32:15;;;;;;;31.25;13.35;;;;;;;4.87;100.00;94644.97;10459362;28;20060;-74
2020/12/04 19:37:16;;;;;;;37.25;16.45;;;;;;;4.86;100.00;94644.16;10449671;28;20115;-75
2020/12/04 19:42:16;;;;;;;32.90;14.85;;;;;;;4.86;100.00;94648.69;10473033;28;20036;-76
2020/12/04 19:47:17;;;;;;;38.78;18.50;;;;;;;4.90;100.00;94652.50;10482507;28;20039;-76
2020/12/04 19:52:18;;;;;;;36.97;17.45;;;;;;;4.91;100.00;94654.91;10462621;28;20048;-76
2020/12/04 19:57:19;;;;;;;33.28;15.65;;;;;;;4.93;100.00;94655.47;10449104;28;20083;-75
2020/12/04 20:02:20;;;;;;;31.95;12.90;;;;;;;5.02;100.00;94661.22;10440837;28;20051;-76
2020/12/04 20:07:22;;;;;;;27.90;13.02;;;;;;;5.03;100.00;94665.50;10440346;28;20056;-76
2020/12/04 20:12:24;;;;;;;31.50;13.57;;;;;;;5.07;100.00;94671.16;10453168;28;20225;-76
2020/12/04 20:17:25;;;;;;;32.95;13.80;;;;;;;5.11;100.00;94667.78;10469251;28;20595;-76
2020/12/04 20:22:27;;;;;;;29.17;12.90;;;;;;;5.10;100.00;94676.00;10471046;28;20049;-76
2020/12/04 20:27:28;;;;;;;30.38;14.38;;;;;;;5.16;100.00;94666.25;10448763;28;20036;-75
2020/12/04 20:32:29;;;;;;;29.27;12.38;;;;;;;5.11;100.00;94673.09;10458274;28;20218;-75
2020/12/04 20:37:30;;;;;;;28.25;12.27;;;;;;;5.19;100.00;94674.56;10447485;28;20123;-75
2020/12/04 20:42:31;;;;;;;31.38;14.15;;;;;;;5.21;100.00;94677.00;10479336;28;20044;-74
2020/12/04 20:47:32;;;;;;;29.85;12.88;;;;;;;5.23;100.00;94665.06;10488813;28;20746;-76
2020/12/04 20:52:34;;;;;;;27.17;12.70;;;;;;;5.18;100.00;94659.63;10447139;28;20037;-75
2020/12/04 20:57:35;;;;;;;29.45;12.38;;;;;;;5.18;100.00;94659.63;10447654;28;20124;-73
2020/12/04 21:02:35;;;;;;;36.05;14.85;;;;;;;5.28;100.00;94657.13;10450962;28;20048;-73
2020/12/04 21:07:37;;;;;;;29.08;14.40;;;;;;;5.29;100.00;94673.94;10472483;28;20043;-73
2020/12/04 21:12:37;;;;;;;31.45;13.73;;;;;;;5.22;100.00;94663.44;10476688;28;20134;-73
2020/12/04 21:17:38;;;;;;;32.45;13.88;;;;;;;5.21;100.00;94672.47;10446161;28;20049;-73
2020/12/04 21:22:39;;;;;;;35.17;13.70;;;;;;;5.12;100.00;94669.41;10463812;28;20048;-73
2020/12/04 21:27:39;;;;;;;34.13;15.82;;;;;;;5.22;100.00;94666.09;10481811;28;20040;-74
2020/12/04 21:32:40;;;;;;;25.40;12.50;;;;;;;5.25;100.00;94664.81;10488518;28;20147;-73
2020/12/04 21:37:40;;;;;;;35.85;14.43;;;;;;;5.26;100.00;94661.91;10486926;28;20071;-73
2020/12/04 21:42:41;;;;;;;33.55;14.10;;;;;;;5.33;100.00;94666.25;10484576;28;20040;-73
2020/12/04 21:47:42;;;;;;;32.58;14.35;;;;;;;5.39;100.00;94673.28;10460687;28;20064;-73
2020/12/04 21:52:43;;;;;;;34.35;14.13;;;;;;;5.31;100.00;94674.50;10457610;28;20028;-73
2020/12/04 21:57:44;;;;;;;25.92;13.35;;;;;;;5.45;100.00;94675.78;10444891;28;20043;-73
2020/12/04 22:02:45;;;;;;;34.20;13.88;;;;;;;5.39;100.00;94660.78;10445397;28;20048;-73
2020/12/04 22:07:46;;;;;;;28.13;12.43;;;;;;;5.49;100.00;94662.78;10444397;28;20040;-73
2020/12/04 22:12:46;;;;;;;31.10;14.18;;;;;;;5.48;100.00;94659.31;10463277;28;20040;-73
2020/12/04 22:17:47;;;;;;;32.67;13.15;;;;;;;5.61;100.00;94674.19;10461442;28;20424;-73
2020/12/04 22:22:47;;;;;;;29.27;12.82;;;;;;;5.56;100.00;94655.44;10441847;28;20037;-73
2020/12/04 22:27:48;;;;;;;24.92;12.07;;;;;;;5.59;100.00;94659.47;10444192;28;20082;-73
2020/12/04 22:32:48;;;;;;;28.75;13.93;;;;;;;5.43;100.00;94658.44;10444175;28;20032;-73
2020/12/04 22:37:51;;;;;;;34.25;14.68;;;;;;;5.51;100.00;94657.22;10443421;28;20037;-73
2020/12/04 22:42:52;;;;;;;31.63;15.30;;;;;;;5.61;100.00;94662.69;10479979;28;20041;-73
2020/12/04 22:47:52;;;;;;;35.75;14.45;;;;;;;5.56;100.00;94679.41;10484980;28;20024;-73
2020/12/04 22:52:53;;;;;;;26.77;13.88;;;;;;;5.64;100.00;94668.34;10483053;28;20045;-73
2020/12/04 22:57:53;;;;;;;32.80;14.23;;;;;;;5.63;100.00;94672.06;10483166;28;20033;-73